createdAt,value
2019-06-01T00:02:07.410Z,17.27
2019-06-01T00:04:38.539Z,16.55
2019-06-01T00:07:08.186Z,17.20
2019-06-01T00:09:38.907Z,15.15
2019-06-01T00:12:08.614Z,12.70
2019-06-01T00:14:39.560Z,19.30
2019-06-01T00:17:09.494Z,16.62
2019-06-01T00:19:39.906Z,16.97
2019-06-01T00:22:09.392Z,17.85
2019-06-01T00:24:38.752Z,16.50
2019-06-01T00:27:08.321Z,15.35
2019-06-01T00:29:38.045Z,17.67
2019-06-01T00:32:07.370Z,16.10
2019-06-01T00:34:36.787Z,15.83
2019-06-01T00:37:06.356Z,17.70
2019-06-01T00:39:35.872Z,15.45
2019-06-01T00:42:08.423Z,19.50
2019-06-01T00:44:37.826Z,19.20
2019-06-01T00:47:07.180Z,21.02
2019-06-01T00:49:36.519Z,16.45
2019-06-01T00:52:06.125Z,22.95
2019-06-01T00:54:35.711Z,18.48
2019-06-01T00:57:06.604Z,19.17
2019-06-01T00:59:36.585Z,20.90
2019-06-01T01:02:06.190Z,19.12
2019-06-01T01:04:35.540Z,20.55
2019-06-01T01:07:05.005Z,21.30
2019-06-01T01:09:34.500Z,22.02
2019-06-01T01:12:04.090Z,18.05
2019-06-01T01:14:33.471Z,21.23
2019-06-01T01:17:02.847Z,21.40
2019-06-01T01:19:32.349Z,18.98
2019-06-01T01:22:03.480Z,16.62
2019-06-01T01:24:32.817Z,21.52
2019-06-01T01:27:02.545Z,21.80
2019-06-01T01:29:32.093Z,16.95
2019-06-01T01:32:01.463Z,20.40
2019-06-01T01:34:30.854Z,20.08
2019-06-01T01:37:00.326Z,20.80
2019-06-01T01:39:29.896Z,20.82
2019-06-01T01:41:59.326Z,20.52
2019-06-01T01:44:28.750Z,21.75
2019-06-01T01:46:59.057Z,18.70
2019-06-01T01:49:28.500Z,15.25
2019-06-01T01:51:58.170Z,19.90
2019-06-01T01:54:29.019Z,21.77
2019-06-01T01:56:58.419Z,21.30
2019-06-01T01:59:27.903Z,17.05
2019-06-01T02:01:58.651Z,16.57
2019-06-01T02:04:28.244Z,19.82
2019-06-01T02:06:58.475Z,16.10
2019-06-01T02:09:28.148Z,19.07
2019-06-01T02:11:57.740Z,20.97
2019-06-01T02:14:27.085Z,18.07
2019-06-01T02:16:58.009Z,18.25
2019-06-01T02:19:27.526Z,16.95
2019-06-01T02:21:57.020Z,17.23
2019-06-01T02:24:26.358Z,16.05
2019-06-01T02:26:57.129Z,16.90
2019-06-01T02:29:27.143Z,14.95
2019-06-01T02:31:56.699Z,16.12
2019-06-01T02:34:26.379Z,19.40
2019-06-01T02:36:56.519Z,20.60
2019-06-01T02:39:26.455Z,15.63
2019-06-01T02:41:56.791Z,17.67
2019-06-01T02:44:26.542Z,14.85
2019-06-01T02:46:57.038Z,17.37
2019-06-01T02:49:26.492Z,16.90
2019-06-01T02:51:57.117Z,18.87
2019-06-01T02:54:26.619Z,17.12
2019-06-01T02:56:55.982Z,20.97
2019-06-01T02:59:25.637Z,21.90
2019-06-01T03:02:00.229Z,18.40
2019-06-01T03:04:27.945Z,19.65
2019-06-01T03:07:00.039Z,18.80
2019-06-01T03:09:32.179Z,19.85
2019-06-01T03:12:04.301Z,22.30
2019-06-01T03:14:36.910Z,21.42
2019-06-01T03:17:07.969Z,22.93
2019-06-01T03:19:40.750Z,17.10
2019-06-01T03:22:12.254Z,22.58
2019-06-01T03:24:43.481Z,17.62
2019-06-01T03:27:15.544Z,15.93
2019-06-01T03:29:48.199Z,17.07
2019-06-01T03:32:33.789Z,21.68
2019-06-01T03:34:49.527Z,17.32
2019-06-01T03:37:19.196Z,16.73
2019-06-01T03:39:49.298Z,17.52
2019-06-01T03:42:19.691Z,17.52
2019-06-01T03:44:49.042Z,18.55
2019-06-01T03:47:18.806Z,19.82
2019-06-01T03:49:48.414Z,17.75
2019-06-01T03:52:19.057Z,19.67
2019-06-01T03:54:48.761Z,18.30
2019-06-01T03:57:18.251Z,20.62
2019-06-01T03:59:47.722Z,22.05
2019-06-01T04:02:17.152Z,22.60
2019-06-01T04:04:46.488Z,21.65
2019-06-01T04:07:17.539Z,23.67
2019-06-01T04:09:46.884Z,20.12
2019-06-01T04:12:16.207Z,19.40
2019-06-01T04:14:45.556Z,19.75
2019-06-01T04:17:15.116Z,21.05
2019-06-01T04:19:44.508Z,18.90
2019-06-01T04:22:13.910Z,18.92
2019-06-01T04:24:43.309Z,16.60
2019-06-01T04:27:12.727Z,15.38
2019-06-01T04:29:42.123Z,20.48
2019-06-01T04:32:12.829Z,22.10
2019-06-01T04:34:42.574Z,21.27
2019-06-01T04:37:13.252Z,21.40
2019-06-01T04:39:43.925Z,18.32
2019-06-01T04:42:14.022Z,20.30
2019-06-01T04:44:44.437Z,19.20
2019-06-01T04:47:14.553Z,17.77
2019-06-01T04:49:44.146Z,16.48
2019-06-01T04:52:15.131Z,25.30
2019-06-01T04:54:47.703Z,12.88
2019-06-01T04:57:17.406Z,19.57
2019-06-01T04:59:46.862Z,15.95
2019-06-01T05:02:16.218Z,16.73
2019-06-01T05:04:45.583Z,15.25
2019-06-01T05:07:15.527Z,22.65
2019-06-01T05:09:45.207Z,31.30
2019-06-01T05:12:15.552Z,30.40
2019-06-01T05:14:45.071Z,25.37
2019-06-01T05:17:15.024Z,23.75
2019-06-01T05:19:45.580Z,16.65
2019-06-01T05:22:15.076Z,15.65
2019-06-01T05:24:44.484Z,12.82
2019-06-01T05:27:15.151Z,13.93
2019-06-01T05:29:44.639Z,12.55
2019-06-01T05:32:14.645Z,11.22
2019-06-01T05:34:45.426Z,10.60
2019-06-01T05:37:16.575Z,10.32
2019-06-01T05:39:46.216Z,8.50
2019-06-01T05:42:16.903Z,11.65
2019-06-01T05:44:46.480Z,9.73
2019-06-01T05:47:16.263Z,9.30
2019-06-01T05:49:45.779Z,7.85
2019-06-01T05:52:16.601Z,10.20
2019-06-01T05:54:46.126Z,7.40
2019-06-01T05:57:16.720Z,9.48
2019-06-01T05:59:46.262Z,6.87
2019-06-01T06:02:15.589Z,11.25
2019-06-01T06:04:44.936Z,7.40
2019-06-01T06:07:14.753Z,5.08
2019-06-01T06:09:44.399Z,6.87
2019-06-01T06:12:15.313Z,5.58
2019-06-01T06:14:45.658Z,5.40
2019-06-01T06:17:17.412Z,5.58
2019-06-01T06:19:46.770Z,4.75
2019-06-01T06:22:16.233Z,5.42
2019-06-01T06:24:45.687Z,5.80
2019-06-01T06:27:15.169Z,6.15
2019-06-01T06:29:46.039Z,8.13
2019-06-01T06:32:15.662Z,9.23
2019-06-01T06:34:45.087Z,8.65
2019-06-01T06:37:15.542Z,6.25
2019-06-01T06:39:45.393Z,7.15
2019-06-01T06:42:16.017Z,5.70
2019-06-01T06:44:46.755Z,5.28
2019-06-01T06:47:16.691Z,4.03
2019-06-01T06:49:47.215Z,6.05
2019-06-01T06:52:17.444Z,4.35
2019-06-01T06:54:46.943Z,5.33
2019-06-01T06:57:16.504Z,4.92
2019-06-01T06:59:46.925Z,4.87
2019-06-01T07:02:16.737Z,3.52
2019-06-01T07:05:06.865Z,6.45
2019-06-01T07:07:37.855Z,4.67
2019-06-01T07:10:08.116Z,3.87
2019-06-01T07:12:37.549Z,3.87
2019-06-01T07:15:07.383Z,4.78
2019-06-01T07:17:39.736Z,5.20
2019-06-01T07:20:09.545Z,4.83
2019-06-01T07:22:39.085Z,4.75
2019-06-01T07:25:08.664Z,4.45
2019-06-01T07:27:38.022Z,3.62
2019-06-01T07:30:07.672Z,4.53
2019-06-01T07:32:37.224Z,6.45
2019-06-01T07:35:08.086Z,4.65
2019-06-01T07:37:37.463Z,4.80
2019-06-01T07:40:13.139Z,5.37
2019-06-01T07:42:39.276Z,8.25
2019-06-01T07:45:09.961Z,7.30
2019-06-01T07:47:39.515Z,5.28
2019-06-01T07:50:08.919Z,4.67
2019-06-01T07:52:38.262Z,6.70
2019-06-01T07:55:07.960Z,5.45
2019-06-01T07:57:37.437Z,5.45
2019-06-01T08:00:11.047Z,3.40
2019-06-01T08:02:40.449Z,5.05
2019-06-01T08:05:10.046Z,4.33
2019-06-01T08:07:40.008Z,3.98
2019-06-01T08:10:09.776Z,4.05
2019-06-01T08:12:39.278Z,3.25
2019-06-01T08:15:09.033Z,3.95
2019-06-01T08:17:38.527Z,6.03
2019-06-01T08:20:09.128Z,5.45
2019-06-01T08:22:38.711Z,5.33
2019-06-01T08:25:08.447Z,2.42
2019-06-01T08:27:37.902Z,4.40
2019-06-01T08:30:07.791Z,3.83
2019-06-01T08:32:38.780Z,3.77
2019-06-01T08:35:09.708Z,4.17
2019-06-01T08:37:39.697Z,3.55
2019-06-01T08:40:09.643Z,2.95
2019-06-01T08:42:39.094Z,4.97
2019-06-01T08:45:09.200Z,6.30
2019-06-01T08:47:38.700Z,4.62
2019-06-01T08:50:08.739Z,3.72
2019-06-01T08:52:38.251Z,6.85
2019-06-01T08:55:08.138Z,5.05
2019-06-01T08:57:37.467Z,5.58
2019-06-01T09:00:10.317Z,4.85
2019-06-01T09:02:39.780Z,6.12
2019-06-01T09:05:23.407Z,4.10
2019-06-01T09:07:40.226Z,3.58
2019-06-01T09:10:11.055Z,7.42
2019-06-01T09:12:40.560Z,5.53
2019-06-01T09:15:11.947Z,7.05
2019-06-01T09:17:41.418Z,4.12
2019-06-01T09:20:11.132Z,5.75
2019-06-01T09:22:40.528Z,4.33
2019-06-01T09:25:10.051Z,3.83
2019-06-01T09:27:40.046Z,5.20
2019-06-01T09:30:10.452Z,6.28
2019-06-01T09:32:40.107Z,3.20
2019-06-01T09:35:10.306Z,5.67
2019-06-01T09:37:39.639Z,4.25
2019-06-01T09:40:10.384Z,3.40
2019-06-01T09:42:39.763Z,5.80
2019-06-01T09:45:09.500Z,3.52
2019-06-01T09:47:38.896Z,4.83
2019-06-01T09:50:08.761Z,3.87
2019-06-01T09:52:38.138Z,5.28
2019-06-01T09:55:07.924Z,6.70
2019-06-01T09:57:38.337Z,3.40
2019-06-01T10:00:10.144Z,4.05
2019-06-01T10:02:39.756Z,5.08
2019-06-01T10:05:09.922Z,4.50
2019-06-01T10:07:39.559Z,4.92
2019-06-01T10:10:09.395Z,3.42
2019-06-01T10:12:38.796Z,3.83
2019-06-01T10:15:09.092Z,3.67
2019-06-01T10:17:39.020Z,9.00
2019-06-01T10:20:10.563Z,6.17
2019-06-01T10:22:39.974Z,3.02
2019-06-01T10:25:09.822Z,5.17
2019-06-01T10:27:39.140Z,4.97
2019-06-01T10:30:09.449Z,4.92
2019-06-01T10:32:39.918Z,4.05
2019-06-01T10:35:09.405Z,4.55
2019-06-01T10:37:39.631Z,3.25
2019-06-01T10:40:10.013Z,5.75
2019-06-01T10:42:39.881Z,5.15
2019-06-01T10:45:09.911Z,5.30
2019-06-01T10:47:40.132Z,5.75
2019-06-01T10:50:09.832Z,4.87
2019-06-01T10:52:40.389Z,4.08
2019-06-01T10:55:10.348Z,4.03
2019-06-01T10:57:40.638Z,4.15
2019-06-01T11:00:11.839Z,2.12
2019-06-01T11:02:41.405Z,3.30
2019-06-01T11:05:11.132Z,3.37
2019-06-01T11:07:41.034Z,5.33
2019-06-01T11:10:11.661Z,4.08
2019-06-01T11:12:41.169Z,5.28
2019-06-01T11:15:11.743Z,4.20
2019-06-01T11:17:41.290Z,5.00
2019-06-01T11:20:10.957Z,6.37
2019-06-01T11:22:41.483Z,3.30
2019-06-01T11:25:11.737Z,3.37
2019-06-01T11:27:41.858Z,4.03
2019-06-01T11:30:12.154Z,2.42
2019-06-01T11:32:43.356Z,3.37
2019-06-01T11:35:13.220Z,3.95
2019-06-01T11:37:44.531Z,4.28
2019-06-01T11:40:14.279Z,4.33
2019-06-01T11:42:44.954Z,5.83
2019-06-01T11:45:14.684Z,3.10
2019-06-01T11:47:45.105Z,4.65
2019-06-01T11:50:14.947Z,4.70
2019-06-01T11:52:45.617Z,3.58
2019-06-01T11:55:15.145Z,22.70
2019-06-01T11:57:45.793Z,4.95
2019-06-01T12:00:18.562Z,3.08
2019-06-01T12:02:48.222Z,3.55
2019-06-01T12:05:17.738Z,3.98
2019-06-01T12:07:47.218Z,4.30
2019-06-01T12:10:16.665Z,4.33
2019-06-01T12:12:46.555Z,3.15
2019-06-01T12:15:16.104Z,2.92
2019-06-01T12:17:47.382Z,3.52
2019-06-01T12:20:17.256Z,5.42
2019-06-01T12:22:47.214Z,2.37
2019-06-01T12:25:17.492Z,3.05
2019-06-01T12:27:48.218Z,3.65
2019-06-01T12:30:18.105Z,2.52
2019-06-01T12:32:48.838Z,2.90
2019-06-01T12:35:19.404Z,2.87
2019-06-01T12:38:04.548Z,2.42
2019-06-01T12:40:21.115Z,3.95
2019-06-01T12:42:51.855Z,2.70
2019-06-01T12:45:23.361Z,5.20
2019-06-01T12:47:58.002Z,3.05
2019-06-01T12:50:24.404Z,2.85
2019-06-01T12:52:53.937Z,6.55
2019-06-01T12:55:23.268Z,3.45
2019-06-01T12:57:52.660Z,3.47
2019-06-01T13:00:22.248Z,2.55
2019-06-01T13:03:03.805Z,2.47
2019-06-01T13:05:22.708Z,3.60
2019-06-01T13:08:00.703Z,2.80
2019-06-01T13:10:23.139Z,4.20
2019-06-01T13:12:52.559Z,2.35
2019-06-01T13:15:22.224Z,3.98
2019-06-01T13:17:51.593Z,2.80
2019-06-01T13:20:21.124Z,2.52
2019-06-01T13:22:51.848Z,2.00
2019-06-01T13:25:21.569Z,4.10
2019-06-01T13:27:52.595Z,3.62
2019-06-01T13:30:22.158Z,2.40
2019-06-01T13:32:52.759Z,3.02
2019-06-01T13:35:22.230Z,3.83
2019-06-01T13:38:10.694Z,4.03
2019-06-01T13:40:23.480Z,3.47
2019-06-01T13:42:53.369Z,2.02
2019-06-01T13:45:22.759Z,5.35
2019-06-01T13:47:52.099Z,3.70
2019-06-01T13:50:21.497Z,3.58
2019-06-01T13:52:52.064Z,4.78
2019-06-01T13:55:21.729Z,2.55
2019-06-01T13:57:52.344Z,2.72
2019-06-01T14:00:30.107Z,2.80
2019-06-01T14:02:57.181Z,3.20
2019-06-01T14:05:25.582Z,3.72
2019-06-01T14:07:55.751Z,4.17
2019-06-01T14:10:25.158Z,2.70
2019-06-01T14:12:55.584Z,2.47
2019-06-01T14:15:25.265Z,5.00
2019-06-01T14:17:54.703Z,1.80
2019-06-01T14:20:24.267Z,2.37
2019-06-01T14:22:54.130Z,1.70
2019-06-01T14:25:23.553Z,2.77
2019-06-01T14:27:54.305Z,3.70
2019-06-01T14:30:24.219Z,3.17
2019-06-01T14:32:54.437Z,2.90
2019-06-01T14:35:24.046Z,3.35
2019-06-01T14:37:53.783Z,2.33
2019-06-01T14:40:24.373Z,3.40
2019-06-01T14:42:55.662Z,4.17
2019-06-01T14:45:25.206Z,2.35
2019-06-01T14:47:55.559Z,2.80
2019-06-01T14:50:26.061Z,3.47
2019-06-01T14:52:57.914Z,2.77
2019-06-01T14:55:27.426Z,3.85
2019-06-01T14:57:58.329Z,2.12
2019-06-01T15:00:28.007Z,5.65
2019-06-01T15:02:58.413Z,3.12
2019-06-01T15:05:27.849Z,2.10
2019-06-01T15:07:57.560Z,2.12
2019-06-01T15:10:28.244Z,1.77
2019-06-01T15:13:02.916Z,2.67
2019-06-01T15:15:28.629Z,3.92
2019-06-01T15:17:57.950Z,2.62
2019-06-01T15:20:27.482Z,3.05
2019-06-01T15:22:56.811Z,2.30
2019-06-01T15:25:26.139Z,3.58
2019-06-01T15:27:56.760Z,4.47
2019-06-01T15:30:26.630Z,2.87
2019-06-01T15:32:56.232Z,4.87
2019-06-01T15:35:25.626Z,6.00
2019-06-01T15:37:58.941Z,3.25
2019-06-01T15:40:25.983Z,2.45
2019-06-01T15:42:55.324Z,2.00
2019-06-01T15:45:24.815Z,2.85
2019-06-01T15:47:55.447Z,3.17
2019-06-01T15:50:24.945Z,3.67
2019-06-01T15:52:54.934Z,3.95
2019-06-01T15:55:24.724Z,3.37
2019-06-01T15:57:54.323Z,3.87
2019-06-01T16:00:23.765Z,4.90
2019-06-01T16:02:54.774Z,2.45
2019-06-01T16:05:24.293Z,2.25
2019-06-01T16:07:55.108Z,4.53
2019-06-01T16:10:24.598Z,4.33
2019-06-01T16:12:55.249Z,3.77
2019-06-01T16:15:24.777Z,4.12
2019-06-01T16:17:54.108Z,2.52
2019-06-01T16:20:23.534Z,3.70
2019-06-01T16:22:53.997Z,5.00
2019-06-01T16:25:23.367Z,3.50
2019-06-01T16:27:52.912Z,3.60
2019-06-01T16:30:22.758Z,3.45
2019-06-01T16:32:52.223Z,4.50
2019-06-01T16:35:21.567Z,4.22
2019-06-01T16:37:51.049Z,4.28
2019-06-01T16:40:20.404Z,2.60
2019-06-01T16:42:49.876Z,2.87
2019-06-01T16:45:20.812Z,3.00
2019-06-01T16:47:50.323Z,2.92
2019-06-01T16:50:19.884Z,4.58
2019-06-01T16:52:52.224Z,3.12
2019-06-01T16:55:21.723Z,4.95
2019-06-01T16:57:51.138Z,5.33
2019-06-01T17:00:21.202Z,3.27
2019-06-01T17:02:50.758Z,4.45
2019-06-01T17:05:20.158Z,3.40
2019-06-01T17:07:51.675Z,3.70
2019-06-01T17:10:26.106Z,8.05
2019-06-01T17:12:52.470Z,6.10
2019-06-01T17:15:22.083Z,3.62
2019-06-01T17:17:51.607Z,6.05
2019-06-01T17:20:40.539Z,4.33
2019-06-01T17:23:24.170Z,3.17
2019-06-01T17:25:41.251Z,3.75
2019-06-01T17:28:10.955Z,3.80
2019-06-01T17:30:40.394Z,2.98
2019-06-01T17:33:10.002Z,2.33
2019-06-01T17:35:39.559Z,2.50
2019-06-01T17:38:09.207Z,2.42
2019-06-01T17:40:42.810Z,3.98
2019-06-01T17:43:10.764Z,8.05
2019-06-01T17:45:40.115Z,3.12
2019-06-01T17:48:21.689Z,4.03
2019-06-01T17:50:40.728Z,2.92
2019-06-01T17:53:10.236Z,2.98
2019-06-01T17:55:39.992Z,2.55
2019-06-01T17:58:10.143Z,5.15
2019-06-01T18:00:40.660Z,5.05
2019-06-01T18:03:10.300Z,5.65
2019-06-01T18:05:39.898Z,5.35
2019-06-01T18:08:10.344Z,3.12
2019-06-01T18:10:53.299Z,4.65
2019-06-01T18:13:12.932Z,3.72
2019-06-01T18:15:42.595Z,2.75
2019-06-01T18:18:12.849Z,6.33
2019-06-01T18:20:42.415Z,7.20
2019-06-01T18:23:13.198Z,2.50
2019-06-01T18:25:42.920Z,7.92
2019-06-01T18:28:16.164Z,10.68
2019-06-01T18:30:44.427Z,6.45
2019-06-01T18:33:13.914Z,7.10
2019-06-01T18:35:43.259Z,5.90
2019-06-01T18:38:13.399Z,3.95
2019-06-01T18:40:43.710Z,4.12
2019-06-01T18:43:16.201Z,4.53
2019-06-01T18:45:48.294Z,3.65
2019-06-01T18:48:20.047Z,7.08
2019-06-01T18:50:49.471Z,6.97
2019-06-01T18:53:18.872Z,4.28
2019-06-01T18:55:48.212Z,28.65
2019-06-01T18:58:17.545Z,19.15
2019-06-01T19:00:47.026Z,10.75
2019-06-01T19:03:16.643Z,11.12
2019-06-01T19:05:46.943Z,11.10
2019-06-01T19:08:17.209Z,8.93
2019-06-01T19:10:48.247Z,6.53
2019-06-01T19:13:18.397Z,3.77
2019-06-01T19:15:47.989Z,4.80
2019-06-01T19:18:17.520Z,3.52
2019-06-01T19:20:46.930Z,3.47
2019-06-01T19:23:20.400Z,7.17
2019-06-01T19:25:48.467Z,8.05
2019-06-01T19:28:18.044Z,3.33
2019-06-01T19:30:47.594Z,4.65
2019-06-01T19:33:19.495Z,5.92
2019-06-01T19:35:51.951Z,5.03
2019-06-01T19:38:21.661Z,3.37
2019-06-01T19:40:53.249Z,4.42
2019-06-01T19:43:23.356Z,3.02
2019-06-01T19:45:52.976Z,7.12
2019-06-01T19:48:22.483Z,7.17
2019-06-01T19:50:51.838Z,7.17
2019-06-01T19:53:21.250Z,3.47
2019-06-01T19:55:50.680Z,4.83
2019-06-01T19:58:20.403Z,5.55
2019-06-01T20:00:49.875Z,6.12
2019-06-01T20:03:22.135Z,5.72
2019-06-01T20:05:52.434Z,6.97
2019-06-01T20:08:22.641Z,5.78
2019-06-01T20:10:52.190Z,8.18
2019-06-01T20:13:21.553Z,5.65
2019-06-01T20:15:52.151Z,4.80
2019-06-01T20:18:22.900Z,5.72
2019-06-01T20:20:52.484Z,11.15
2019-06-01T20:23:22.117Z,9.65
2019-06-01T20:25:51.602Z,7.28
2019-06-01T20:28:21.676Z,7.60
2019-06-01T20:30:51.651Z,11.28
2019-06-01T20:33:22.582Z,13.20
2019-06-01T20:35:52.405Z,12.88
2019-06-01T20:38:23.399Z,10.30
2019-06-01T20:40:56.253Z,10.50
2019-06-01T20:43:25.727Z,7.78
2019-06-01T20:45:57.124Z,7.72
2019-06-01T20:48:26.734Z,13.72
2019-06-01T20:50:56.123Z,9.43
2019-06-01T20:53:25.672Z,12.80
2019-06-01T20:55:55.601Z,10.90
2019-06-01T20:58:26.769Z,11.73
2019-06-01T21:00:56.242Z,10.25
2019-06-01T21:03:25.675Z,15.65
2019-06-01T21:05:55.127Z,16.95
2019-06-01T21:08:24.600Z,22.10
2019-06-01T21:10:55.619Z,22.93
2019-06-01T21:13:25.156Z,9.10
2019-06-01T21:15:54.780Z,11.68
2019-06-01T21:18:25.276Z,9.33
2019-06-01T21:20:54.832Z,9.23
2019-06-01T21:23:25.401Z,19.65
2019-06-01T21:25:56.615Z,13.72
2019-06-01T21:28:26.266Z,6.87
2019-06-01T21:30:55.812Z,10.15
2019-06-01T21:33:28.202Z,9.85
2019-06-01T21:35:57.266Z,12.13
2019-06-01T21:38:26.654Z,10.93
2019-06-01T21:40:59.928Z,9.28
2019-06-01T21:43:35.197Z,12.28
2019-06-01T21:46:00.380Z,19.40
2019-06-01T21:48:32.751Z,9.63
2019-06-01T21:51:02.815Z,10.45
2019-06-01T21:53:32.631Z,12.60
2019-06-01T21:56:02.201Z,9.68
2019-06-01T21:58:31.550Z,26.50
2019-06-01T22:01:01.146Z,21.75
2019-06-01T22:03:31.925Z,9.70
2019-06-01T22:06:01.585Z,12.00
2019-06-01T22:08:30.988Z,7.40
2019-06-01T22:11:00.418Z,7.72
2019-06-01T22:13:29.959Z,10.20
2019-06-01T22:15:59.312Z,11.25
2019-06-01T22:18:29.051Z,7.78
2019-06-01T22:21:00.379Z,11.70
2019-06-01T22:23:31.001Z,11.40
2019-06-01T22:26:00.572Z,10.28
2019-06-01T22:28:30.984Z,10.75
2019-06-01T22:31:00.290Z,11.45
2019-06-01T22:33:29.657Z,11.97
2019-06-01T22:35:59.049Z,11.05
2019-06-01T22:38:29.977Z,12.25
2019-06-01T22:40:59.548Z,8.78
2019-06-01T22:43:44.572Z,9.88
2019-06-01T22:46:00.280Z,13.72
2019-06-01T22:48:29.635Z,12.65
2019-06-01T22:51:00.008Z,15.38
2019-06-01T22:53:29.334Z,15.35
2019-06-01T22:55:58.678Z,15.70
2019-06-01T22:58:29.501Z,17.57
2019-06-01T23:00:59.381Z,16.05
2019-06-01T23:03:30.177Z,14.80
2019-06-01T23:05:59.782Z,14.23
2019-06-01T23:08:29.462Z,14.28
2019-06-01T23:10:59.046Z,15.10
2019-06-01T23:13:28.416Z,10.43
2019-06-01T23:15:58.022Z,13.45
2019-06-01T23:18:28.058Z,12.25
2019-06-01T23:20:57.405Z,15.32
2019-06-01T23:23:28.038Z,18.95
2019-06-01T23:25:57.612Z,18.10
2019-06-01T23:28:28.422Z,12.58
2019-06-01T23:30:58.111Z,20.32
2019-06-01T23:33:27.429Z,17.87
2019-06-01T23:35:57.165Z,15.60
2019-06-01T23:38:26.653Z,13.22
2019-06-01T23:40:56.495Z,11.78
2019-06-01T23:43:26.943Z,15.88
2019-06-01T23:45:56.480Z,10.95
2019-06-01T23:48:27.133Z,11.88
2019-06-01T23:50:56.647Z,15.40
2019-06-01T23:53:27.181Z,14.03
2019-06-01T23:55:56.974Z,10.85
2019-06-01T23:58:26.292Z,11.97
